createdAt,value
2019-05-29T00:01:02.098Z,76996.95
2019-05-29T00:03:28.008Z,76995.95
2019-05-29T00:05:54.380Z,76996.95
2019-05-29T00:08:20.356Z,76995.95
2019-05-29T00:10:46.329Z,76999.96
2019-05-29T00:13:12.426Z,77004.97
2019-05-29T00:15:41.527Z,77004.97
2019-05-29T00:18:08.810Z,77006.97
2019-05-29T00:20:35.176Z,77007.97
2019-05-29T00:23:01.239Z,77009.97
2019-05-29T00:25:27.188Z,77011.97
2019-05-29T00:27:53.144Z,77018.98
2019-05-29T00:30:19.192Z,77021.98
2019-05-29T00:32:44.999Z,77017.98
2019-05-29T00:35:12.172Z,77015.97
2019-05-29T00:37:40.115Z,77022.98
2019-05-29T00:40:06.741Z,77019.98
2019-05-29T00:42:32.783Z,77025.98
2019-05-29T00:44:58.806Z,77026.98
2019-05-29T00:47:24.880Z,77027.98
2019-05-29T00:49:51.248Z,77025.98
2019-05-29T00:52:18.291Z,77028.98
2019-05-29T00:54:44.480Z,77034.98
2019-05-29T00:57:10.902Z,77034.98
2019-05-29T00:59:36.840Z,77036.99
2019-05-29T01:02:02.822Z,77042.00
2019-05-29T01:04:28.889Z,77044.00
2019-05-29T01:06:54.812Z,77052.00
2019-05-29T01:09:20.809Z,77057.01
2019-05-29T01:11:47.170Z,77057.01
2019-05-29T01:14:13.139Z,77054.00
2019-05-29T01:16:39.495Z,77059.01
2019-05-29T01:19:23.782Z,77057.01
2019-05-29T01:21:49.770Z,77059.01
2019-05-29T01:24:16.300Z,77058.01
2019-05-29T01:26:42.383Z,77065.02
2019-05-29T01:29:11.453Z,77067.02
2019-05-29T01:31:37.493Z,77073.02
2019-05-29T01:34:03.859Z,77074.02
2019-05-29T01:36:29.922Z,77076.02
2019-05-29T01:38:56.288Z,77084.03
2019-05-29T01:41:23.432Z,77088.03
2019-05-29T01:43:49.619Z,77091.03
2019-05-29T01:46:15.665Z,77095.05
2019-05-29T01:48:41.920Z,77096.05
2019-05-29T01:51:10.537Z,77106.05
2019-05-29T01:53:36.490Z,77103.05
2019-05-29T01:56:02.551Z,77105.05
2019-05-29T01:58:28.616Z,77105.05
2019-05-29T02:00:54.665Z,77111.05
2019-05-29T02:03:21.848Z,77111.05
2019-05-29T02:05:47.914Z,77113.06
2019-05-29T02:08:13.959Z,77117.06
2019-05-29T02:10:39.941Z,77116.06
2019-05-29T02:13:05.893Z,77118.06
2019-05-29T02:15:33.964Z,77120.06
2019-05-29T02:18:00.023Z,77121.06
2019-05-29T02:20:26.904Z,77127.07
2019-05-29T02:22:53.043Z,77130.08
2019-05-29T02:25:20.653Z,77132.08
2019-05-29T02:27:46.780Z,77128.07
2019-05-29T02:30:12.939Z,77130.08
2019-05-29T02:32:39.405Z,77130.08
2019-05-29T02:35:05.450Z,77141.08
2019-05-29T02:37:31.343Z,77139.08
2019-05-29T02:39:57.353Z,77146.09
2019-05-29T02:42:25.003Z,77148.09
2019-05-29T02:44:51.034Z,77146.09
2019-05-29T02:47:17.069Z,77147.09
2019-05-29T02:49:43.119Z,77149.09
2019-05-29T02:52:09.089Z,77153.09
2019-05-29T02:54:35.036Z,77157.09
2019-05-29T02:57:01.069Z,77160.09
2019-05-29T02:59:27.767Z,77162.10
2019-05-29T03:01:55.145Z,77169.11
2019-05-29T03:04:21.693Z,77167.11
2019-05-29T03:06:47.713Z,77169.11
2019-05-29T03:09:13.580Z,77169.11
2019-05-29T03:11:39.739Z,77176.11
2019-05-29T03:14:05.752Z,77171.11
2019-05-29T03:16:32.861Z,77183.12
2019-05-29T03:18:59.437Z,77184.13
2019-05-29T03:21:26.082Z,77189.13
2019-05-29T03:23:52.141Z,77191.13
2019-05-29T03:26:18.410Z,77199.14
2019-05-29T03:28:44.375Z,77205.14
2019-05-29T03:31:10.351Z,77206.14
2019-05-29T03:33:45.206Z,77211.14
2019-05-29T03:36:03.963Z,77222.16
2019-05-29T03:38:30.310Z,77215.15
2019-05-29T03:40:56.383Z,77228.16
2019-05-29T03:43:22.443Z,77231.16
2019-05-29T03:45:48.591Z,77224.16
2019-05-29T03:48:14.642Z,77232.16
2019-05-29T03:50:40.694Z,77239.17
2019-05-29T03:53:06.743Z,77245.17
2019-05-29T03:55:33.811Z,77246.17
2019-05-29T03:58:00.719Z,77245.17
2019-05-29T04:00:32.040Z,77253.19
2019-05-29T04:02:54.549Z,77253.19
2019-05-29T04:05:20.471Z,77260.19
2019-05-29T04:07:46.324Z,77265.20
2019-05-29T04:10:12.237Z,77261.19
2019-05-29T04:12:38.815Z,77260.19
2019-05-29T04:15:04.834Z,77263.19
2019-05-29T04:17:31.970Z,77266.20
2019-05-29T04:19:58.551Z,77267.20
2019-05-29T04:22:27.936Z,77269.20
2019-05-29T04:24:54.032Z,77269.20
2019-05-29T04:27:19.894Z,77271.20
2019-05-29T04:29:46.337Z,77268.20
2019-05-29T04:32:12.387Z,77274.20
2019-05-29T04:34:41.346Z,77279.20
2019-05-29T04:37:07.564Z,77287.22
2019-05-29T04:39:34.483Z,77289.22
2019-05-29T04:42:00.510Z,77288.22
2019-05-29T04:44:26.562Z,77291.22
2019-05-29T04:47:09.435Z,77293.22
2019-05-29T04:49:20.548Z,77298.23
2019-05-29T04:51:46.586Z,77307.23
2019-05-29T04:54:12.644Z,77313.23
2019-05-29T04:56:39.113Z,77313.23
2019-05-29T04:59:05.389Z,77317.24
2019-05-29T05:01:31.415Z,77320.25
2019-05-29T05:03:57.782Z,77322.25
2019-05-29T05:06:23.844Z,77327.25
2019-05-29T05:08:49.903Z,77331.26
2019-05-29T05:11:15.857Z,77330.25
2019-05-29T05:13:41.822Z,77335.27
2019-05-29T05:16:10.449Z,77335.27
2019-05-29T05:18:36.361Z,77339.27
2019-05-29T05:21:02.367Z,77340.27
2019-05-29T05:23:28.434Z,77341.27
2019-05-29T05:25:54.722Z,77347.27
2019-05-29T05:28:21.040Z,77347.27
2019-05-29T05:30:47.241Z,77345.27
2019-05-29T05:33:13.294Z,77350.27
2019-05-29T05:35:39.357Z,77353.28
2019-05-29T05:38:05.327Z,77361.28
2019-05-29T05:40:31.356Z,77365.29
2019-05-29T05:42:58.639Z,77374.30
2019-05-29T05:45:24.731Z,77377.30
2019-05-29T05:47:57.443Z,77382.30
2019-05-29T05:50:18.567Z,77388.31
2019-05-29T05:52:44.612Z,77395.31
2019-05-29T05:55:10.672Z,77393.31
2019-05-29T05:57:37.738Z,77402.33
2019-05-29T06:00:08.631Z,77403.33
2019-05-29T06:02:35.816Z,77405.33
2019-05-29T06:05:02.367Z,77415.34
2019-05-29T06:07:28.533Z,77417.34
2019-05-29T06:09:54.427Z,77410.33
2019-05-29T06:12:20.457Z,77412.34
2019-05-29T06:14:46.515Z,77417.34
2019-05-29T06:17:12.467Z,77422.34
2019-05-29T06:19:43.010Z,77425.34
2019-05-29T06:22:09.620Z,77424.34
2019-05-29T06:24:36.969Z,77427.34
2019-05-29T06:27:03.130Z,77428.34
2019-05-29T06:29:29.319Z,77423.34
2019-05-29T06:31:55.374Z,77429.35
2019-05-29T06:34:21.428Z,77433.36
2019-05-29T06:36:48.315Z,77429.35
2019-05-29T06:39:14.464Z,77427.34
2019-05-29T06:41:41.938Z,77430.35
2019-05-29T06:44:08.265Z,77431.35
2019-05-29T06:46:36.052Z,77434.36
2019-05-29T06:49:02.222Z,77432.35
2019-05-29T06:51:28.255Z,77441.36
2019-05-29T06:53:54.531Z,77440.36
2019-05-29T06:56:20.477Z,77440.36
2019-05-29T06:58:46.460Z,77439.36
2019-05-29T07:01:12.486Z,77449.37
2019-05-29T07:03:41.762Z,77443.36
2019-05-29T07:06:09.824Z,77447.37
2019-05-29T07:08:40.008Z,77459.38
2019-05-29T07:11:03.421Z,77450.38
2019-05-29T07:13:29.457Z,77448.37
2019-05-29T07:15:55.395Z,77454.38
2019-05-29T07:18:21.356Z,77453.38
2019-05-29T07:20:47.503Z,77456.38
2019-05-29T07:23:13.586Z,77457.38
2019-05-29T07:25:40.811Z,77458.38
2019-05-29T07:28:06.824Z,77462.38
2019-05-29T07:30:32.881Z,77460.38
2019-05-29T07:32:59.230Z,77456.38
2019-05-29T07:35:25.212Z,77462.38
2019-05-29T07:37:51.098Z,77464.38
2019-05-29T07:40:16.951Z,77470.39
2019-05-29T07:42:49.757Z,77469.39
2019-05-29T07:45:10.659Z,77475.39
2019-05-29T07:47:38.138Z,77481.40
2019-05-29T07:50:04.612Z,77471.39
2019-05-29T07:52:40.653Z,77473.39
2019-05-29T07:55:06.815Z,77469.39
2019-05-29T07:57:32.832Z,77467.39
2019-05-29T07:59:58.887Z,77465.38
2019-05-29T08:02:24.862Z,77461.38
2019-05-29T08:04:50.897Z,77458.38
2019-05-29T08:07:16.853Z,77465.38
2019-05-29T08:09:43.622Z,77467.39
2019-05-29T08:12:09.791Z,77457.38
2019-05-29T08:14:35.859Z,77465.38
2019-05-29T08:17:01.924Z,77470.39
2019-05-29T08:19:27.878Z,77470.39
2019-05-29T08:21:53.836Z,77471.39
2019-05-29T08:24:23.848Z,77472.39
2019-05-29T08:26:48.817Z,77471.39
2019-05-29T08:29:14.892Z,77474.39
2019-05-29T08:31:40.873Z,77467.39
2019-05-29T08:34:06.894Z,77471.39
2019-05-29T08:36:32.944Z,77473.39
2019-05-29T08:38:58.997Z,77481.40
2019-05-29T08:41:25.047Z,77481.40
2019-05-29T08:43:51.114Z,77477.39
2019-05-29T08:46:17.169Z,77482.41
2019-05-29T08:48:43.682Z,77489.41
2019-05-29T08:51:10.091Z,77495.41
2019-05-29T08:53:36.138Z,77499.42
2019-05-29T08:56:02.298Z,77501.42
2019-05-29T08:58:28.861Z,77501.42
2019-05-29T09:00:55.376Z,77503.42
2019-05-29T09:03:21.398Z,77503.42
2019-05-29T09:06:04.307Z,77507.42
2019-05-29T09:08:15.212Z,77507.42
2019-05-29T09:10:41.264Z,77511.43
2019-05-29T09:13:07.319Z,77512.44
2019-05-29T09:15:33.376Z,77504.42
2019-05-29T09:17:59.416Z,77510.43
2019-05-29T09:20:43.227Z,77507.42
2019-05-29T09:22:53.088Z,77509.43
2019-05-29T09:25:19.182Z,77507.42
2019-05-29T09:27:45.195Z,77509.43
2019-05-29T09:30:11.257Z,77511.43
2019-05-29T09:32:49.671Z,77503.42
2019-05-29T09:35:05.020Z,77507.42
2019-05-29T09:37:31.043Z,77517.44
2019-05-29T09:39:57.501Z,77520.44
2019-05-29T09:42:23.757Z,77521.44
2019-05-29T09:44:49.829Z,77521.44
2019-05-29T09:47:17.261Z,77523.44
2019-05-29T09:49:43.644Z,77524.45
2019-05-29T09:52:09.699Z,77531.45
2019-05-29T09:54:35.784Z,77537.45
2019-05-29T09:57:02.828Z,77531.45
2019-05-29T09:59:28.982Z,77532.45
2019-05-29T10:01:57.022Z,77527.45
2019-05-29T10:04:22.723Z,77530.45
2019-05-29T10:06:48.768Z,77534.45
2019-05-29T10:09:14.716Z,77540.46
2019-05-29T10:11:40.971Z,77539.45
2019-05-29T10:14:07.041Z,77540.46
2019-05-29T10:16:33.379Z,77545.47
2019-05-29T10:19:00.379Z,77547.47
2019-05-29T10:21:39.015Z,77544.47
2019-05-29T10:23:56.662Z,77539.45
2019-05-29T10:26:22.963Z,77543.46
2019-05-29T10:29:02.052Z,77540.46
2019-05-29T10:31:16.812Z,77539.45
2019-05-29T10:33:44.017Z,77543.46
2019-05-29T10:36:10.151Z,77548.47
2019-05-29T10:38:36.192Z,77550.47
2019-05-29T10:41:06.810Z,77547.47
2019-05-29T10:43:34.031Z,77546.47
2019-05-29T10:45:57.744Z,77547.47
2019-05-29T10:48:23.782Z,77546.47
2019-05-29T10:50:52.167Z,77547.47
2019-05-29T10:53:17.929Z,77553.47
2019-05-29T10:55:44.453Z,77549.47
2019-05-29T10:58:10.567Z,77551.47
2019-05-29T11:00:39.095Z,77551.47
2019-05-29T11:03:04.311Z,77551.47
2019-05-29T11:05:30.397Z,77552.47
2019-05-29T11:07:56.420Z,77551.47
2019-05-29T11:10:22.791Z,77557.48
2019-05-29T11:12:48.834Z,77551.47
2019-05-29T11:15:21.246Z,77555.47
2019-05-29T11:17:42.501Z,77549.47
2019-05-29T11:20:11.810Z,77546.47
2019-05-29T11:22:38.072Z,77542.46
2019-05-29T11:25:21.702Z,77547.47
2019-05-29T11:27:32.236Z,77551.47
2019-05-29T11:29:59.130Z,77551.47
2019-05-29T11:32:25.176Z,77547.47
2019-05-29T11:34:52.318Z,77552.47
2019-05-29T11:37:18.939Z,77543.46
2019-05-29T11:39:45.000Z,77543.46
2019-05-29T11:42:26.269Z,77544.47
2019-05-29T11:44:38.990Z,77547.47
2019-05-29T11:47:05.036Z,77543.46
2019-05-29T11:49:31.109Z,77542.46
2019-05-29T11:52:18.613Z,77538.45
2019-05-29T11:54:24.970Z,77542.46
2019-05-29T11:56:53.206Z,77541.46
2019-05-29T11:59:18.601Z,77542.46
2019-05-29T12:01:50.405Z,77543.46
2019-05-29T12:04:25.418Z,77545.47
2019-05-29T12:06:40.024Z,77550.47
2019-05-29T12:09:07.127Z,77543.46
2019-05-29T12:11:33.468Z,77543.46
2019-05-29T12:14:00.471Z,77547.47
2019-05-29T12:16:27.308Z,77546.47
2019-05-29T12:18:53.660Z,77543.46
2019-05-29T12:21:19.738Z,77547.47
2019-05-29T12:23:45.660Z,77544.47
2019-05-29T12:26:21.831Z,77544.47
2019-05-29T12:28:39.530Z,77548.47
2019-05-29T12:31:05.647Z,77543.46
2019-05-29T12:33:31.709Z,77546.47
2019-05-29T12:35:59.015Z,77542.46
2019-05-29T12:38:25.157Z,77542.46
2019-05-29T12:40:51.541Z,77548.47
2019-05-29T12:43:26.725Z,77546.47
2019-05-29T12:45:45.273Z,77539.45
2019-05-29T12:48:13.847Z,77545.47
2019-05-29T12:50:39.018Z,77550.47
2019-05-29T12:53:05.079Z,77544.47
2019-05-29T12:55:31.226Z,77546.47
2019-05-29T12:57:58.007Z,77549.47
2019-05-29T13:00:24.157Z,77548.47
2019-05-29T13:02:50.616Z,77544.47
2019-05-29T13:05:20.366Z,77543.46
2019-05-29T13:07:44.454Z,77542.46
2019-05-29T13:10:10.500Z,77543.46
2019-05-29T13:12:36.545Z,77537.45
2019-05-29T13:15:05.782Z,77539.45
2019-05-29T13:17:31.920Z,77540.46
2019-05-29T13:20:06.086Z,77537.45
2019-05-29T13:22:25.760Z,77538.45
2019-05-29T13:24:52.793Z,77534.45
2019-05-29T13:27:18.985Z,77535.45
2019-05-29T13:29:45.035Z,77542.46
2019-05-29T13:32:10.982Z,77537.45
2019-05-29T13:34:36.954Z,77540.46
2019-05-29T13:37:06.708Z,77543.46
2019-05-29T13:39:30.764Z,77539.45
2019-05-29T13:41:58.592Z,77538.45
2019-05-29T13:44:24.531Z,77538.45
2019-05-29T13:46:50.579Z,77542.46
2019-05-29T13:49:16.634Z,77537.45
2019-05-29T13:51:43.107Z,77538.45
2019-05-29T13:54:15.383Z,77541.46
2019-05-29T13:56:37.255Z,77539.45
2019-05-29T13:59:04.861Z,77545.47
2019-05-29T14:01:31.004Z,77548.47
2019-05-29T14:03:58.069Z,77549.47
2019-05-29T14:06:24.257Z,77544.47
2019-05-29T14:08:50.272Z,77544.47
2019-05-29T14:11:16.322Z,77549.47
2019-05-29T14:13:42.372Z,77549.47
2019-05-29T14:16:10.480Z,77545.47
2019-05-29T14:18:36.522Z,77553.47
2019-05-29T14:21:03.168Z,77549.47
2019-05-29T14:23:29.180Z,77555.47
2019-05-29T14:25:55.197Z,77557.48
2019-05-29T14:28:21.169Z,77548.47
2019-05-29T14:30:47.195Z,77551.47
2019-05-29T14:33:15.152Z,77552.47
2019-05-29T14:35:41.452Z,77551.47
2019-05-29T14:38:10.876Z,77550.47
2019-05-29T14:40:35.696Z,77552.47
2019-05-29T14:43:01.757Z,77545.47
2019-05-29T14:45:27.743Z,77553.47
2019-05-29T14:47:53.772Z,77547.47
2019-05-29T14:50:19.822Z,77550.47
2019-05-29T14:52:45.887Z,77554.47
2019-05-29T14:55:16.263Z,77547.47
2019-05-29T14:57:39.561Z,77555.47
2019-05-29T15:00:17.399Z,77555.47
2019-05-29T15:02:34.004Z,77549.47
2019-05-29T15:05:00.056Z,77555.47
2019-05-29T15:07:26.107Z,77555.47
2019-05-29T15:09:52.155Z,77551.47
2019-05-29T15:12:18.205Z,77552.47
2019-05-29T15:14:44.255Z,77554.47
2019-05-29T15:17:11.014Z,77554.47
2019-05-29T15:19:37.065Z,77556.48
2019-05-29T15:22:03.038Z,77554.47
2019-05-29T15:24:29.063Z,77554.47
2019-05-29T15:26:55.014Z,77552.47
2019-05-29T15:29:20.964Z,77550.47
2019-05-29T15:31:47.317Z,77548.47
2019-05-29T15:34:14.348Z,77555.47
2019-05-29T15:36:40.542Z,77554.47
2019-05-29T15:39:10.568Z,77554.47
2019-05-29T15:41:35.533Z,77557.48
2019-05-29T15:44:01.583Z,77557.48
2019-05-29T15:46:27.654Z,77560.48
2019-05-29T15:48:53.722Z,77564.48
2019-05-29T15:51:21.883Z,77559.48
2019-05-29T15:53:47.575Z,77558.48
2019-05-29T15:56:21.676Z,77556.48
2019-05-29T15:58:41.326Z,77554.47
2019-05-29T16:01:07.682Z,77561.48
2019-05-29T16:03:33.647Z,77557.48
2019-05-29T16:05:59.979Z,77555.47
2019-05-29T16:08:25.833Z,77556.48
2019-05-29T16:10:51.679Z,77565.48
2019-05-29T16:13:18.937Z,77562.48
2019-05-29T16:15:45.022Z,77568.48
2019-05-29T16:18:19.904Z,77570.48
2019-05-29T16:20:39.079Z,77571.48
2019-05-29T16:23:05.121Z,77573.49
2019-05-29T16:25:40.184Z,77572.49
2019-05-29T16:27:59.182Z,77577.50
2019-05-29T16:30:25.241Z,77575.49
2019-05-29T16:32:51.293Z,77579.50
2019-05-29T16:35:17.291Z,77586.51
2019-05-29T16:37:43.287Z,77589.52
2019-05-29T16:40:09.758Z,77588.51
2019-05-29T16:42:35.708Z,77593.52
2019-05-29T16:45:02.398Z,77597.52
2019-05-29T16:47:28.689Z,77597.52
2019-05-29T16:49:54.722Z,77592.52
2019-05-29T16:52:20.978Z,77595.52
2019-05-29T16:54:47.046Z,77595.52
2019-05-29T16:57:13.089Z,77592.52
2019-05-29T16:59:39.448Z,77592.52
2019-05-29T17:02:05.384Z,77594.52
2019-05-29T17:04:31.359Z,77594.52
2019-05-29T17:06:57.423Z,77595.52
2019-05-29T17:09:24.554Z,77599.52
2019-05-29T17:11:50.677Z,77596.52
2019-05-29T17:14:16.741Z,77602.52
2019-05-29T17:16:43.105Z,77603.52
2019-05-29T17:19:09.187Z,77599.52
2019-05-29T17:21:35.539Z,77603.52
2019-05-29T17:24:01.499Z,77604.52
2019-05-29T17:26:27.561Z,77610.53
2019-05-29T17:28:53.615Z,77604.52
2019-05-29T17:31:20.895Z,77609.53
2019-05-29T17:33:47.171Z,77612.53
2019-05-29T17:36:13.084Z,77613.53
2019-05-29T17:38:39.386Z,77609.53
2019-05-29T17:41:05.354Z,77617.54
2019-05-29T17:43:31.321Z,77618.54
2019-05-29T17:45:57.467Z,77622.55
2019-05-29T17:48:23.937Z,77618.54
2019-05-29T17:50:50.388Z,77629.55
2019-05-29T17:53:17.625Z,77626.55
2019-05-29T17:55:46.607Z,77626.55
2019-05-29T17:58:11.531Z,77622.55
2019-05-29T18:00:38.802Z,77626.55
2019-05-29T18:03:04.854Z,77634.55
2019-05-29T18:05:30.917Z,77633.55
2019-05-29T18:08:01.298Z,77643.56
2019-05-29T18:10:25.704Z,77641.56
2019-05-29T18:12:52.176Z,77649.57
2019-05-29T18:15:19.281Z,77652.58
2019-05-29T18:17:45.618Z,77662.58
2019-05-29T18:20:14.404Z,77655.58
2019-05-29T18:22:39.367Z,77657.58
2019-05-29T18:25:05.410Z,77655.58
2019-05-29T18:27:31.465Z,77652.58
2019-05-29T18:29:57.539Z,77658.58
2019-05-29T18:32:24.525Z,77658.58
2019-05-29T18:34:53.645Z,77660.58
2019-05-29T18:37:18.279Z,77662.58
2019-05-29T18:39:44.664Z,77667.59
2019-05-29T18:42:10.735Z,77667.59
2019-05-29T18:44:37.099Z,77678.60
2019-05-29T18:47:03.172Z,77681.61
2019-05-29T18:49:29.236Z,77682.61
2019-05-29T18:51:55.597Z,77684.61
2019-05-29T18:54:21.668Z,77684.61
2019-05-29T18:57:13.127Z,77683.61
2019-05-29T18:59:15.565Z,77693.62
2019-05-29T19:01:41.737Z,77696.63
2019-05-29T19:04:08.097Z,77697.63
2019-05-29T19:06:34.169Z,77693.62
2019-05-29T19:09:00.108Z,77704.63
2019-05-29T19:11:26.369Z,77708.63
2019-05-29T19:13:52.345Z,77712.64
2019-05-29T19:16:18.378Z,77717.64
2019-05-29T19:18:44.339Z,77717.64
2019-05-29T19:21:10.392Z,77714.64
2019-05-29T19:23:36.448Z,77717.64
2019-05-29T19:26:02.424Z,77720.64
2019-05-29T19:28:28.720Z,77720.64
2019-05-29T19:30:54.754Z,77727.66
2019-05-29T19:33:20.713Z,77730.66
2019-05-29T19:35:47.097Z,77737.66
2019-05-29T19:38:13.173Z,77747.67
2019-05-29T19:40:39.241Z,77743.67
2019-05-29T19:43:05.305Z,77749.67
2019-05-29T19:45:32.509Z,77755.68
2019-05-29T19:47:59.310Z,77751.67
2019-05-29T19:50:26.383Z,77754.68
2019-05-29T19:52:52.786Z,77757.69
2019-05-29T19:55:18.871Z,77759.69
2019-05-29T19:57:55.550Z,77754.68
2019-05-29T20:00:12.629Z,77758.69
2019-05-29T20:02:38.697Z,77763.69
2019-05-29T20:05:05.472Z,77763.69
2019-05-29T20:07:31.533Z,77764.69
2019-05-29T20:09:57.592Z,77769.70
2019-05-29T20:12:23.645Z,77767.70
2019-05-29T20:14:49.616Z,77773.70
2019-05-29T20:17:15.679Z,77776.70
2019-05-29T20:19:42.055Z,77781.71
2019-05-29T20:22:10.942Z,77777.70
2019-05-29T20:24:36.984Z,77784.72
2019-05-29T20:27:03.329Z,77787.72
2019-05-29T20:29:30.274Z,77792.72
2019-05-29T20:31:56.422Z,77791.72
2019-05-29T20:34:22.501Z,77795.73
2019-05-29T20:36:48.582Z,77794.73
2019-05-29T20:39:14.638Z,77798.73
2019-05-29T20:41:43.551Z,77800.73
2019-05-29T20:44:09.976Z,77806.73
2019-05-29T20:46:36.613Z,77805.73
2019-05-29T20:49:03.727Z,77811.74
2019-05-29T20:51:30.108Z,77811.74
2019-05-29T20:53:56.517Z,77813.75
2019-05-29T20:56:22.524Z,77812.74
2019-05-29T20:58:48.455Z,77811.74
2019-05-29T21:01:14.445Z,77814.75
2019-05-29T21:03:40.910Z,77811.74
2019-05-29T21:06:06.943Z,77815.75
2019-05-29T21:08:33.020Z,77813.75
2019-05-29T21:10:59.099Z,77820.75
2019-05-29T21:13:25.152Z,77823.75
2019-05-29T21:15:51.223Z,77823.75
2019-05-29T21:18:17.289Z,77825.76
2019-05-29T21:20:44.618Z,77829.77
2019-05-29T21:23:10.737Z,77827.77
2019-05-29T21:25:37.113Z,77821.75
2019-05-29T21:28:03.173Z,77825.76
2019-05-29T21:30:29.185Z,77830.77
2019-05-29T21:32:55.068Z,77832.77
2019-05-29T21:35:21.280Z,77833.77
2019-05-29T21:37:47.158Z,77832.77
2019-05-29T21:40:13.809Z,77830.77
2019-05-29T21:42:40.566Z,77835.77
2019-05-29T21:45:06.651Z,77839.77
2019-05-29T21:47:32.705Z,77836.77
2019-05-29T21:49:58.773Z,77838.77
2019-05-29T21:52:25.232Z,77843.78
2019-05-29T21:54:51.304Z,77844.78
2019-05-29T21:57:17.387Z,77841.77
2019-05-29T21:59:43.816Z,77844.78
2019-05-29T22:02:09.839Z,77843.78
2019-05-29T22:04:36.092Z,77843.78
2019-05-29T22:07:02.262Z,77841.77
2019-05-29T22:09:28.311Z,77843.78
2019-05-29T22:11:54.371Z,77847.78
2019-05-29T22:14:20.727Z,77851.78
2019-05-29T22:16:47.023Z,77845.78
2019-05-29T22:19:12.956Z,77851.78
2019-05-29T22:21:39.008Z,77854.79
2019-05-29T22:24:05.063Z,77849.78
2019-05-29T22:26:31.048Z,77852.78
2019-05-29T22:28:58.598Z,77854.79
2019-05-29T22:31:25.062Z,77854.79
2019-05-29T22:33:51.444Z,77859.80
2019-05-29T22:36:17.599Z,77857.80
2019-05-29T22:38:43.661Z,77859.80
2019-05-29T22:41:09.723Z,77858.80
2019-05-29T22:43:35.998Z,77857.80
2019-05-29T22:46:04.565Z,77860.80
2019-05-29T22:48:31.203Z,77861.80
2019-05-29T22:50:57.833Z,77861.80
2019-05-29T22:53:24.420Z,77857.80
2019-05-29T22:55:51.626Z,77861.80
2019-05-29T22:58:17.971Z,77862.80
2019-05-29T23:00:44.237Z,77862.80
2019-05-29T23:03:11.138Z,77865.80
2019-05-29T23:05:38.913Z,77860.80
2019-05-29T23:08:05.129Z,77865.80
2019-05-29T23:10:31.368Z,77867.80
2019-05-29T23:13:01.123Z,77865.80
2019-05-29T23:15:26.528Z,77867.80
2019-05-29T23:17:54.400Z,77867.80
2019-05-29T23:20:21.117Z,77864.80
2019-05-29T23:22:47.588Z,77867.80
2019-05-29T23:25:14.074Z,77869.80
2019-05-29T23:27:40.570Z,77866.80
2019-05-29T23:30:08.605Z,77870.81
2019-05-29T23:32:34.895Z,77875.81
2019-05-29T23:35:01.575Z,77874.81
2019-05-29T23:37:27.630Z,77870.81
2019-05-29T23:39:53.559Z,77869.80
2019-05-29T23:42:19.525Z,77866.80
2019-05-29T23:44:45.779Z,77867.80
2019-05-29T23:47:11.726Z,77863.80
2019-05-29T23:49:37.878Z,77870.81
2019-05-29T23:52:04.971Z,77871.81
2019-05-29T23:54:31.110Z,77872.81
2019-05-29T23:56:57.933Z,77874.81
2019-05-29T23:59:23.934Z,77873.81
